createdAt,value
2022-11-16T00:04:06.689Z,97503.09
2022-11-16T00:09:34.138Z,97501.95
2022-11-16T00:15:17.306Z,97493.55
2022-11-16T00:20:40.634Z,97492.37
2022-11-16T00:26:23.279Z,97483.50
2022-11-16T00:32:06.872Z,97484.66
2022-11-16T00:37:30.756Z,97489.27
2022-11-16T00:42:58.754Z,97489.93
2022-11-16T00:48:25.477Z,97485.48
2022-11-16T00:53:53.015Z,97485.53
2022-11-16T00:59:16.279Z,97483.08
2022-11-16T01:04:43.098Z,97474.46
2022-11-16T01:10:25.985Z,97473.61
2022-11-16T01:15:48.923Z,97464.00
2022-11-16T01:21:11.419Z,97453.96
2022-11-16T01:26:34.646Z,97447.39
2022-11-16T01:31:59.884Z,97443.04
2022-11-16T01:37:24.040Z,97438.50
2022-11-16T01:42:47.151Z,97424.79
2022-11-16T01:48:14.749Z,97420.81
2022-11-16T01:53:38.426Z,97416.95
2022-11-16T01:59:02.924Z,97417.04
2022-11-16T02:04:25.235Z,97409.42
2022-11-16T02:10:28.421Z,97405.41
2022-11-16T02:16:23.834Z,97397.50
2022-11-16T02:22:18.231Z,97389.98
2022-11-16T02:28:17.864Z,97380.45
2022-11-16T02:33:45.589Z,97385.79
2022-11-16T02:39:16.526Z,97372.36
2022-11-16T02:44:45.753Z,97368.01
2022-11-16T02:50:20.067Z,97366.67
2022-11-16T02:55:50.144Z,97368.71
2022-11-16T03:01:25.752Z,97370.08
2022-11-16T03:06:50.485Z,97371.61
2022-11-16T03:12:19.190Z,97380.38
2022-11-16T03:17:46.343Z,97373.70
2022-11-16T03:23:11.869Z,97364.64
2022-11-16T03:29:11.568Z,97359.30
2022-11-16T03:34:36.975Z,97361.25
2022-11-16T03:40:02.708Z,97357.79
2022-11-16T03:45:28.415Z,97347.16
2022-11-16T03:50:52.704Z,97340.95
2022-11-16T03:56:16.463Z,97327.78
2022-11-16T04:01:44.362Z,97314.65
2022-11-16T04:07:27.533Z,97311.23
2022-11-16T04:13:31.370Z,97304.98
2022-11-16T04:19:13.010Z,97303.56
2022-11-16T04:24:38.847Z,97295.23
2022-11-16T04:30:03.447Z,97296.17
2022-11-16T04:35:44.960Z,97284.89
2022-11-16T04:41:28.292Z,97282.27
2022-11-16T04:47:07.577Z,97278.46
2022-11-16T04:52:31.427Z,97268.52
2022-11-16T04:57:55.261Z,97265.00
2022-11-16T05:03:17.757Z,97256.00
2022-11-16T05:08:40.581Z,97250.13
2022-11-16T05:14:02.673Z,97250.86
2022-11-16T05:19:44.133Z,97255.70
2022-11-16T05:25:08.527Z,97251.66
2022-11-16T05:30:31.058Z,97245.20
2022-11-16T05:35:54.859Z,97241.95
2022-11-16T05:41:37.894Z,97238.23
2022-11-16T05:47:01.292Z,97235.23
2022-11-16T05:52:23.903Z,97234.88
2022-11-16T05:57:49.128Z,97234.86
2022-11-16T06:03:11.470Z,97242.21
2022-11-16T06:08:34.674Z,97237.50
2022-11-16T06:14:20.024Z,97232.61
2022-11-16T06:19:48.348Z,97226.70
2022-11-16T06:25:11.521Z,97228.64
2022-11-16T06:30:39.437Z,97228.61
2022-11-16T06:36:01.722Z,97232.14
2022-11-16T06:41:23.672Z,97232.64
2022-11-16T06:46:46.053Z,97226.75
2022-11-16T06:52:09.091Z,97223.60
2022-11-16T06:57:31.112Z,97228.41
2022-11-16T07:03:33.577Z,97225.94
2022-11-16T07:10:16.753Z,97227.13
2022-11-16T07:16:45.336Z,97228.06
2022-11-16T07:22:08.804Z,97216.58
2022-11-16T07:27:31.816Z,97214.77
2022-11-16T07:32:59.863Z,97206.44
2022-11-16T07:38:41.847Z,97198.02
2022-11-16T07:44:28.840Z,97197.31
2022-11-16T07:51:13.858Z,97191.14
2022-11-16T07:57:25.163Z,97189.30
2022-11-16T08:03:32.631Z,97192.11
2022-11-16T08:09:28.175Z,97189.84
2022-11-16T08:15:58.688Z,97181.55
2022-11-16T08:22:06.087Z,97180.52
2022-11-16T08:28:18.442Z,97169.30
2022-11-16T08:34:06.385Z,97168.76
2022-11-16T08:40:42.695Z,97169.48
2022-11-16T08:47:06.079Z,97169.29
2022-11-16T08:53:19.347Z,97169.68
2022-11-16T08:59:02.196Z,97170.98
2022-11-16T09:04:26.118Z,97178.69
2022-11-16T09:09:49.288Z,97181.22
2022-11-16T09:15:11.554Z,97180.66
2022-11-16T09:20:58.035Z,97172.40
2022-11-16T09:27:20.338Z,97169.88
2022-11-16T09:34:03.802Z,97164.83
2022-11-16T09:40:46.842Z,97164.52
2022-11-16T09:47:30.056Z,97162.45
2022-11-16T09:53:59.540Z,97154.77
2022-11-16T09:59:30.480Z,97144.02
2022-11-16T10:05:03.393Z,97145.71
2022-11-16T10:10:39.168Z,97137.54
2022-11-16T10:16:31.379Z,97138.02
2022-11-16T10:22:35.838Z,97136.47
2022-11-16T10:28:35.355Z,97132.81
2022-11-16T10:34:25.348Z,97123.64
2022-11-16T10:39:54.310Z,97118.02
2022-11-16T10:46:00.463Z,97118.36
2022-11-16T10:51:47.577Z,97113.89
2022-11-16T10:58:14.914Z,97108.80
2022-11-16T11:05:05.818Z,97111.20
2022-11-16T11:11:47.570Z,97106.84
2022-11-16T11:17:58.840Z,97101.84
2022-11-16T11:24:44.313Z,97112.31
2022-11-16T11:31:06.558Z,97105.02
2022-11-16T11:37:41.606Z,97096.98
2022-11-16T11:43:47.451Z,97103.27
2022-11-16T11:50:06.698Z,97099.51
2022-11-16T11:55:35.949Z,97104.54
2022-11-16T12:01:51.687Z,97101.00
2022-11-16T12:08:29.134Z,97101.32
2022-11-16T12:14:24.710Z,97096.88
2022-11-16T12:20:38.567Z,97092.29
2022-11-16T12:26:48.646Z,97089.15
2022-11-16T12:33:35.462Z,97081.86
2022-11-16T12:40:25.018Z,97075.63
2022-11-16T12:47:25.326Z,97068.56
2022-11-16T12:54:19.698Z,97063.26
2022-11-16T13:01:02.532Z,97064.92
2022-11-16T13:08:01.303Z,97061.59
2022-11-16T13:14:20.497Z,97069.32
2022-11-16T13:21:04.892Z,97061.77
2022-11-16T13:27:56.105Z,97064.94
2022-11-16T13:34:39.428Z,97065.46
2022-11-16T13:41:22.950Z,97069.80
2022-11-16T13:48:11.618Z,97061.52
2022-11-16T13:54:55.382Z,97058.17
2022-11-16T14:01:48.762Z,97053.33
2022-11-16T14:08:31.848Z,97049.15
2022-11-16T14:15:13.351Z,97048.64
2022-11-16T14:21:18.670Z,97043.64
2022-11-16T14:28:20.952Z,97034.62
2022-11-16T14:34:13.489Z,97021.49
2022-11-16T14:40:59.463Z,97014.30
2022-11-16T14:47:10.101Z,97013.84
2022-11-16T14:53:32.983Z,97014.14
2022-11-16T15:00:23.087Z,97002.33
2022-11-16T15:07:07.636Z,97005.25
2022-11-16T15:13:51.327Z,97005.51
2022-11-16T15:20:37.779Z,97007.68
2022-11-16T16:08:55.800Z,97042.63
2022-11-16T16:15:59.345Z,97044.56
2022-11-16T16:22:47.512Z,97043.63
2022-11-16T16:29:30.821Z,97032.15
2022-11-16T16:36:02.522Z,97036.23
2022-11-16T16:42:47.002Z,97030.82
2022-11-16T16:48:29.768Z,97031.17
2022-11-16T16:53:52.925Z,97031.33
2022-11-16T16:59:15.383Z,97033.08
2022-11-16T17:05:17.969Z,97029.83
2022-11-16T17:11:01.837Z,97037.47
2022-11-16T17:17:04.134Z,97041.37
2022-11-16T17:23:47.284Z,97043.77
2022-11-16T17:30:30.736Z,97043.97
2022-11-16T17:36:59.074Z,97044.94
2022-11-16T17:43:22.240Z,97045.39
2022-11-16T17:49:45.696Z,97045.34
2022-11-16T17:55:30.185Z,97050.34
2022-11-16T18:00:52.799Z,97043.91
2022-11-16T18:06:20.043Z,97041.73
2022-11-16T18:11:49.040Z,97050.13
2022-11-16T18:17:35.057Z,97047.39
2022-11-16T18:23:57.238Z,97045.39
2022-11-16T18:30:21.846Z,97048.69
2022-11-16T18:37:04.706Z,97054.23
2022-11-16T18:43:47.546Z,97047.20
2022-11-16T18:50:32.114Z,97044.58
2022-11-16T18:57:14.873Z,97047.27
2022-11-16T19:03:58.220Z,97043.47
2022-11-16T19:10:36.960Z,97044.59
2022-11-16T19:17:19.935Z,97044.52
2022-11-16T19:24:05.786Z,97050.69
2022-11-16T19:30:52.043Z,97046.42
2022-11-16T19:37:35.405Z,97053.73
2022-11-16T19:43:58.575Z,97062.16
2022-11-16T19:50:41.857Z,97065.80
2022-11-16T19:57:06.466Z,97069.14
2022-11-16T20:03:49.796Z,97070.05
2022-11-16T20:10:33.340Z,97067.48
2022-11-16T20:17:16.446Z,97065.19
2022-11-16T20:24:04.676Z,97066.84
2022-11-16T20:30:49.327Z,97064.05
2022-11-16T20:37:19.183Z,97071.13
2022-11-16T20:43:45.998Z,97067.42
2022-11-16T20:49:52.221Z,97065.14
2022-11-16T20:56:38.743Z,97073.94
2022-11-16T21:03:22.200Z,97070.37
2022-11-16T21:09:51.931Z,97074.45
2022-11-16T21:16:17.167Z,97068.14
2022-11-16T21:23:00.636Z,97060.21
2022-11-16T21:29:23.166Z,97055.44
2022-11-16T21:34:54.465Z,97055.55
2022-11-16T21:40:19.479Z,97054.34
2022-11-16T21:45:47.355Z,97063.59
2022-11-16T21:51:15.523Z,97069.92
2022-11-16T21:56:40.693Z,97069.59
2022-11-16T22:02:03.471Z,97071.40
2022-11-16T22:07:39.535Z,97076.77
2022-11-16T22:13:03.352Z,97074.90
2022-11-16T22:18:26.654Z,97085.34
2022-11-16T22:23:48.907Z,97080.90
2022-11-16T22:29:12.726Z,97080.15
2022-11-16T22:41:13.205Z,97086.91
2022-11-16T22:47:09.279Z,97089.41
2022-11-16T22:52:47.192Z,97087.27
2022-11-16T22:59:06.669Z,97082.66
2022-11-16T23:05:13.306Z,97079.96
2022-11-16T23:10:56.338Z,97078.74
2022-11-16T23:16:34.157Z,97075.84
2022-11-16T23:22:14.581Z,97078.49
2022-11-16T23:27:56.935Z,97065.47
2022-11-16T23:33:39.422Z,97059.23
2022-11-16T23:39:06.833Z,97058.80
2022-11-16T23:44:50.625Z,97065.16
2022-11-16T23:50:20.070Z,97062.35
2022-11-16T23:55:44.335Z,97059.65
